createdAt,value
2022-12-19T00:00:36.925Z,2.06
2022-12-19T00:03:05.221Z,1.98
2022-12-19T00:05:37.529Z,2.02
2022-12-19T00:08:09.999Z,2.03
2022-12-19T00:10:45.679Z,2.07
2022-12-19T00:13:15.754Z,2.10
2022-12-19T00:15:45.077Z,2.05
2022-12-19T00:18:13.070Z,2.08
2022-12-19T00:20:40.990Z,2.28
2022-12-19T00:23:09.009Z,2.35
2022-12-19T00:25:36.906Z,2.27
2022-12-19T00:28:08.206Z,2.26
2022-12-19T00:30:35.952Z,2.15
2022-12-19T00:33:05.077Z,2.31
2022-12-19T00:35:33.197Z,2.23
2022-12-19T00:38:01.140Z,2.20
2022-12-19T00:40:28.908Z,2.35
2022-12-19T00:42:56.738Z,2.32
2022-12-19T00:45:26.074Z,2.52
2022-12-19T00:47:53.913Z,2.55
2022-12-19T00:50:23.052Z,2.72
2022-12-19T00:52:50.808Z,2.72
2022-12-19T00:55:19.686Z,2.83
2022-12-19T00:57:48.104Z,2.61
2022-12-19T01:00:18.327Z,2.64
2022-12-19T01:02:46.961Z,2.55
2022-12-19T01:05:15.380Z,2.64
2022-12-19T01:07:44.838Z,2.54
2022-12-19T01:10:12.863Z,2.69
2022-12-19T01:12:45.897Z,2.74
2022-12-19T01:15:16.562Z,2.69
2022-12-19T01:17:45.200Z,2.51
2022-12-19T01:20:15.663Z,2.78
2022-12-19T01:22:45.243Z,2.64
2022-12-19T01:25:13.580Z,2.79
2022-12-19T01:27:41.854Z,2.76
2022-12-19T01:30:12.009Z,2.86
2022-12-19T01:32:40.238Z,2.85
2022-12-19T01:35:11.790Z,2.87
2022-12-19T01:37:51.513Z,2.89
2022-12-19T01:40:20.031Z,2.80
2022-12-19T01:42:48.501Z,2.81
2022-12-19T01:45:33.472Z,2.90
2022-12-19T01:48:19.655Z,2.80
2022-12-19T01:51:02.546Z,2.73
2022-12-19T01:53:48.406Z,2.69
2022-12-19T01:56:20.586Z,2.69
2022-12-19T01:59:00.571Z,2.66
2022-12-19T02:01:35.638Z,2.62
2022-12-19T02:04:07.240Z,2.85
2022-12-19T02:06:36.608Z,2.78
2022-12-19T02:09:05.802Z,2.89
2022-12-19T02:11:34.105Z,2.99
2022-12-19T02:14:02.402Z,3.06
2022-12-19T02:16:47.547Z,3.01
2022-12-19T02:19:55.503Z,3.06
2022-12-19T02:22:41.535Z,2.92
2022-12-19T02:25:49.488Z,2.83
2022-12-19T02:28:51.522Z,2.96
2022-12-19T02:31:30.418Z,2.97
2022-12-19T02:34:10.501Z,3.05
2022-12-19T02:36:46.259Z,2.86
2022-12-19T02:39:24.297Z,2.96
2022-12-19T02:41:58.036Z,3.09
2022-12-19T02:44:31.413Z,3.13
2022-12-19T02:47:04.635Z,3.16
2022-12-19T02:49:35.561Z,3.23
2022-12-19T02:52:10.361Z,3.16
2022-12-19T02:54:40.745Z,3.18
2022-12-19T02:57:21.481Z,3.19
2022-12-19T03:00:06.265Z,3.31
2022-12-19T03:02:57.907Z,3.41
2022-12-19T03:05:41.950Z,3.64
2022-12-19T03:08:24.563Z,3.65
2022-12-19T03:11:00.057Z,3.62
2022-12-19T03:13:35.117Z,3.56
2022-12-19T03:16:05.844Z,3.69
2022-12-19T03:18:36.129Z,3.82
2022-12-19T03:21:12.263Z,3.62
2022-12-19T03:23:41.382Z,3.89
2022-12-19T03:26:21.729Z,3.97
2022-12-19T03:28:57.097Z,3.93
2022-12-19T03:31:28.793Z,3.99
2022-12-19T03:34:03.432Z,4.00
2022-12-19T03:36:39.611Z,4.07
2022-12-19T03:39:11.117Z,4.03
2022-12-19T03:42:01.968Z,4.12
2022-12-19T03:44:36.323Z,4.08
2022-12-19T03:47:12.389Z,4.20
2022-12-19T03:49:42.490Z,4.17
2022-12-19T03:52:27.018Z,4.35
2022-12-19T03:55:07.289Z,4.20
2022-12-19T03:57:42.382Z,4.49
2022-12-19T04:00:17.044Z,4.50
2022-12-19T04:02:49.869Z,4.43
2022-12-19T04:05:24.110Z,4.44
2022-12-19T04:07:59.486Z,4.56
2022-12-19T04:10:31.019Z,4.63
2022-12-19T04:13:05.655Z,4.41
2022-12-19T04:15:46.700Z,4.62
2022-12-19T04:18:16.477Z,4.63
2022-12-19T04:20:55.985Z,4.66
2022-12-19T04:23:31.467Z,4.72
2022-12-19T04:26:05.263Z,4.68
2022-12-19T04:28:39.466Z,4.50
2022-12-19T04:31:12.451Z,4.76
2022-12-19T04:33:40.321Z,4.97
2022-12-19T04:36:11.349Z,4.87
2022-12-19T04:38:40.064Z,4.67
2022-12-19T04:41:08.559Z,4.94
2022-12-19T04:43:36.757Z,4.84
2022-12-19T04:46:04.696Z,4.89
2022-12-19T04:48:32.554Z,4.99
2022-12-19T04:51:00.407Z,5.17
2022-12-19T04:53:29.708Z,4.98
2022-12-19T04:56:02.668Z,5.09
2022-12-19T04:58:30.897Z,5.11
2022-12-19T05:01:03.274Z,5.08
2022-12-19T05:03:31.215Z,5.11
2022-12-19T05:06:11.467Z,5.00
2022-12-19T05:08:43.049Z,5.24
2022-12-19T05:11:19.243Z,5.15
2022-12-19T05:13:47.925Z,5.20
2022-12-19T05:16:16.090Z,5.19
2022-12-19T05:18:44.797Z,4.99
2022-12-19T05:21:12.965Z,5.24
2022-12-19T05:23:42.091Z,5.31
2022-12-19T05:26:12.041Z,5.07
2022-12-19T05:28:41.018Z,5.11
2022-12-19T05:31:12.131Z,5.24
2022-12-19T05:33:42.925Z,5.28
2022-12-19T05:36:12.662Z,5.08
2022-12-19T05:38:43.017Z,5.29
2022-12-19T05:41:18.713Z,5.28
2022-12-19T05:43:52.103Z,5.30
2022-12-19T05:46:21.208Z,5.28
2022-12-19T05:48:49.478Z,5.31
2022-12-19T05:51:17.795Z,5.41
2022-12-19T05:53:46.976Z,5.36
2022-12-19T05:56:18.413Z,5.43
2022-12-19T05:58:47.530Z,5.50
2022-12-19T06:01:18.498Z,5.42
2022-12-19T06:03:47.869Z,5.55
2022-12-19T06:06:22.519Z,5.52
2022-12-19T06:08:56.080Z,5.71
2022-12-19T06:11:25.927Z,5.58
2022-12-19T06:13:55.154Z,5.57
2022-12-19T06:16:24.289Z,5.49
2022-12-19T06:18:52.233Z,5.59
2022-12-19T06:21:23.503Z,5.67
2022-12-19T06:23:52.105Z,5.74
2022-12-19T06:26:23.448Z,5.75
2022-12-19T06:28:53.754Z,5.77
2022-12-19T06:31:23.584Z,5.86
2022-12-19T06:33:53.188Z,5.73
2022-12-19T06:36:24.615Z,5.83
2022-12-19T06:38:54.084Z,5.73
2022-12-19T06:41:40.946Z,5.84
2022-12-19T06:44:12.574Z,5.83
2022-12-19T06:46:41.226Z,5.92
2022-12-19T06:49:10.736Z,5.94
2022-12-19T06:51:39.101Z,6.01
2022-12-19T06:54:07.367Z,6.13
2022-12-19T06:56:39.313Z,6.04
2022-12-19T06:59:08.905Z,6.05
2022-12-19T07:01:52.451Z,6.13
2022-12-19T07:04:29.666Z,6.05
2022-12-19T07:06:58.467Z,6.05
2022-12-19T07:09:28.985Z,6.11
2022-12-19T07:11:58.237Z,6.19
2022-12-19T07:14:26.369Z,6.31
2022-12-19T07:16:56.209Z,6.20
2022-12-19T07:19:24.409Z,6.14
2022-12-19T07:21:52.457Z,6.21
2022-12-19T07:24:23.138Z,6.30
2022-12-19T07:26:51.365Z,6.43
2022-12-19T07:29:20.778Z,6.25
2022-12-19T07:31:48.613Z,6.43
2022-12-19T07:34:16.442Z,6.46
2022-12-19T07:36:44.573Z,6.47
2022-12-19T07:39:12.437Z,6.29
2022-12-19T07:41:40.678Z,6.41
2022-12-19T07:44:09.504Z,6.37
2022-12-19T07:46:39.734Z,6.47
2022-12-19T07:49:07.487Z,6.51
2022-12-19T07:51:35.311Z,6.58
2022-12-19T07:54:03.751Z,6.57
2022-12-19T07:56:31.502Z,6.69
2022-12-19T07:58:59.887Z,6.68
2022-12-19T08:01:28.653Z,6.73
2022-12-19T08:03:59.081Z,6.72
2022-12-19T08:06:27.406Z,6.82
2022-12-19T08:08:56.091Z,6.88
2022-12-19T08:11:27.280Z,6.91
2022-12-19T08:13:56.573Z,6.80
2022-12-19T08:16:28.033Z,7.03
2022-12-19T08:18:56.623Z,6.99
2022-12-19T08:21:26.426Z,7.00
2022-12-19T08:23:54.654Z,7.12
2022-12-19T08:26:25.875Z,7.10
2022-12-19T08:28:55.844Z,7.14
2022-12-19T08:31:26.579Z,7.05
2022-12-19T08:33:55.955Z,7.26
2022-12-19T08:36:26.443Z,7.19
2022-12-19T08:38:55.286Z,7.36
2022-12-19T08:41:23.605Z,7.21
2022-12-19T08:43:54.424Z,7.24
2022-12-19T08:46:24.233Z,7.39
2022-12-19T08:48:52.697Z,7.45
2022-12-19T08:51:21.014Z,7.31
2022-12-19T08:53:50.556Z,7.40
2022-12-19T08:56:21.622Z,7.54
2022-12-19T08:58:52.808Z,7.51
2022-12-19T09:01:23.904Z,7.45
2022-12-19T09:04:32.121Z,7.46
2022-12-19T09:06:40.177Z,7.60
2022-12-19T09:09:09.427Z,7.68
2022-12-19T09:11:46.614Z,7.66
2022-12-19T09:14:21.212Z,7.80
2022-12-19T09:16:49.883Z,7.75
2022-12-19T09:19:18.631Z,7.77
2022-12-19T09:21:46.505Z,7.73
2022-12-19T09:24:15.644Z,7.78
2022-12-19T09:26:44.975Z,7.68
2022-12-19T09:29:20.534Z,7.89
2022-12-19T09:31:51.827Z,7.92
2022-12-19T09:34:24.860Z,7.78
2022-12-19T09:37:05.148Z,7.78
2022-12-19T09:39:35.558Z,8.00
2022-12-19T09:42:51.248Z,8.17
2022-12-19T09:45:50.198Z,8.05
2022-12-19T09:48:24.462Z,8.15
2022-12-19T09:51:09.521Z,8.22
2022-12-19T09:53:55.787Z,8.13
2022-12-19T09:56:31.365Z,8.02
2022-12-19T09:59:13.877Z,7.93
2022-12-19T10:01:56.171Z,7.86
2022-12-19T10:04:29.067Z,8.00
2022-12-19T10:07:11.825Z,7.90
2022-12-19T10:12:34.115Z,7.92
2022-12-19T10:13:13.568Z,8.06
2022-12-19T10:16:00.222Z,8.05
2022-12-19T10:18:51.133Z,8.08
2022-12-19T10:22:15.698Z,8.05
2022-12-19T10:25:08.197Z,8.10
2022-12-19T10:27:59.840Z,8.06
2022-12-19T10:30:35.950Z,8.14
2022-12-19T10:33:20.806Z,8.13
2022-12-19T10:36:02.362Z,8.17
2022-12-19T10:38:40.249Z,8.24
2022-12-19T10:41:25.579Z,8.35
2022-12-19T10:44:03.329Z,8.31
2022-12-19T10:46:42.203Z,8.47
2022-12-19T10:49:16.929Z,8.44
2022-12-19T10:51:58.794Z,8.44
2022-12-19T10:54:33.529Z,8.41
2022-12-19T10:57:25.482Z,8.43
2022-12-19T10:59:57.732Z,8.55
2022-12-19T11:02:44.477Z,8.57
2022-12-19T11:05:27.318Z,8.40
2022-12-19T11:08:12.079Z,8.53
2022-12-19T11:11:51.977Z,8.66
2022-12-19T11:19:26.812Z,8.43
2022-12-19T11:22:14.537Z,8.77
2022-12-19T11:29:30.654Z,8.73
2022-12-19T11:29:42.671Z,8.81
2022-12-19T11:30:39.086Z,8.80
2022-12-19T11:30:39.348Z,8.87
2022-12-19T11:34:14.597Z,8.73
2022-12-19T11:36:48.971Z,8.86
2022-12-19T11:39:24.009Z,8.88
2022-12-19T11:42:24.467Z,8.98
2022-12-19T11:45:04.330Z,9.16
2022-12-19T11:47:41.139Z,9.18
2022-12-19T11:50:18.943Z,9.25
2022-12-19T11:53:04.523Z,9.32
2022-12-19T11:55:45.338Z,9.26
2022-12-19T11:58:14.513Z,9.22
2022-12-19T12:00:56.611Z,9.24
2022-12-19T12:04:02.712Z,9.31
2022-12-19T12:06:35.756Z,9.30
2022-12-19T12:14:25.301Z,9.31
2022-12-19T12:18:07.456Z,9.28
2022-12-19T12:28:55.874Z,9.23
2022-12-19T12:31:08.774Z,9.29
2022-12-19T12:31:18.475Z,9.26
2022-12-19T12:31:47.726Z,9.42
2022-12-19T12:32:04.347Z,9.30
2022-12-19T12:35:56.946Z,9.33
2022-12-19T12:41:16.112Z,9.45
2022-12-19T12:44:02.049Z,9.51
2022-12-19T12:46:38.364Z,9.57
2022-12-19T12:49:15.745Z,9.64
2022-12-19T12:51:44.007Z,9.75
2022-12-19T12:54:16.891Z,9.68
2022-12-19T12:56:48.375Z,9.64
2022-12-19T12:59:28.308Z,9.66
2022-12-19T13:01:59.345Z,9.83
2022-12-19T13:04:33.211Z,9.90
2022-12-19T13:07:30.058Z,9.79
2022-12-19T13:10:22.105Z,9.95
2022-12-19T13:13:14.316Z,9.95
2022-12-19T13:15:44.965Z,9.92
2022-12-19T13:18:34.518Z,10.07
2022-12-19T13:21:06.994Z,10.06
2022-12-19T13:23:49.440Z,10.08
2022-12-19T13:26:52.279Z,10.11
2022-12-19T13:29:54.495Z,10.04
2022-12-19T13:32:24.322Z,10.15
2022-12-19T13:35:04.800Z,10.18
2022-12-19T13:39:56.401Z,10.00
2022-12-19T13:40:55.603Z,9.88
2022-12-19T13:43:46.552Z,10.09
2022-12-19T13:46:42.509Z,10.07
2022-12-19T13:49:18.634Z,10.00
2022-12-19T13:51:53.346Z,10.06
2022-12-19T13:54:28.368Z,10.18
2022-12-19T13:57:09.025Z,10.20
2022-12-19T13:59:54.320Z,10.07
2022-12-19T14:02:33.880Z,10.20
2022-12-19T14:05:53.349Z,10.08
2022-12-19T14:08:22.079Z,10.24
2022-12-19T14:11:40.625Z,10.03
2022-12-19T14:14:15.058Z,10.04
2022-12-19T14:16:45.609Z,9.85
2022-12-19T14:19:24.948Z,10.13
2022-12-19T14:22:04.179Z,9.95
2022-12-19T14:24:40.344Z,9.85
2022-12-19T14:28:19.473Z,9.69
2022-12-19T14:30:27.655Z,9.85
2022-12-19T14:33:46.784Z,9.77
2022-12-19T14:36:11.336Z,9.79
2022-12-19T14:39:24.397Z,9.54
2022-12-19T14:42:01.845Z,9.62
2022-12-19T14:52:34.426Z,9.62
2022-12-19T14:53:52.995Z,9.61
2022-12-19T14:54:14.242Z,9.41
2022-12-19T14:54:35.863Z,9.47
2022-12-19T14:59:02.944Z,9.45
2022-12-19T15:01:36.535Z,9.38
2022-12-19T15:04:49.092Z,9.56
2022-12-19T15:07:12.187Z,9.74
2022-12-19T15:11:05.553Z,9.66
2022-12-19T15:14:49.483Z,9.61
2022-12-19T15:16:07.270Z,9.47
2022-12-19T15:18:42.664Z,9.57
2022-12-19T15:21:13.758Z,9.61
2022-12-19T15:23:42.209Z,9.48
2022-12-19T15:26:16.763Z,9.71
2022-12-19T15:28:50.066Z,9.57
2022-12-19T15:31:32.149Z,9.78
2022-12-19T15:36:51.009Z,9.69
2022-12-19T15:39:20.268Z,9.78
2022-12-19T15:41:54.556Z,9.66
2022-12-19T15:44:34.477Z,9.68
2022-12-19T15:47:04.802Z,9.54
2022-12-19T15:49:35.000Z,9.73
2022-12-19T15:52:03.104Z,9.72
2022-12-19T15:54:48.696Z,9.76
2022-12-19T15:57:30.125Z,9.73
2022-12-19T16:00:00.989Z,9.70
2022-12-19T16:03:04.527Z,9.97
2022-12-19T16:05:20.329Z,9.76
2022-12-19T16:07:48.556Z,9.79
2022-12-19T16:10:18.520Z,9.82
2022-12-19T16:12:51.780Z,9.67
2022-12-19T16:15:26.702Z,9.83
2022-12-19T16:17:58.317Z,9.79
2022-12-19T16:20:29.758Z,9.70
2022-12-19T16:22:58.307Z,9.74
2022-12-19T16:25:42.583Z,9.77
2022-12-19T16:28:19.443Z,9.83
2022-12-19T16:30:50.505Z,9.76
2022-12-19T16:33:22.586Z,9.77
2022-12-19T16:36:04.186Z,9.74
2022-12-19T16:38:33.952Z,9.86
2022-12-19T16:41:02.501Z,9.83
2022-12-19T16:43:38.946Z,9.88
2022-12-19T16:46:12.326Z,9.90
2022-12-19T16:48:40.160Z,9.96
2022-12-19T16:51:19.773Z,9.85
2022-12-19T16:53:48.153Z,9.70
2022-12-19T16:56:25.597Z,9.87
2022-12-19T16:58:56.547Z,9.89
2022-12-19T17:01:24.478Z,9.96
2022-12-19T17:03:52.714Z,10.00
2022-12-19T17:06:23.283Z,9.96
2022-12-19T17:08:51.154Z,9.93
2022-12-19T17:11:22.806Z,9.98
2022-12-19T17:13:56.311Z,9.92
2022-12-19T17:16:24.872Z,10.01
2022-12-19T17:18:52.855Z,9.90
2022-12-19T17:21:23.628Z,10.05
2022-12-19T17:23:52.314Z,9.95
2022-12-19T17:26:20.295Z,9.93
2022-12-19T17:28:52.240Z,9.94
2022-12-19T17:31:26.756Z,9.99
2022-12-19T17:34:00.051Z,9.99
2022-12-19T17:36:46.295Z,10.06
2022-12-19T17:39:26.531Z,9.97
2022-12-19T17:41:58.639Z,9.91
2022-12-19T17:44:26.527Z,10.05
2022-12-19T17:46:55.792Z,9.95
2022-12-19T17:49:30.746Z,10.00
2022-12-19T17:52:01.322Z,10.13
2022-12-19T17:54:30.544Z,10.07
2022-12-19T17:56:58.543Z,10.28
2022-12-19T17:59:26.441Z,10.09
2022-12-19T18:01:55.762Z,10.18
2022-12-19T18:04:25.176Z,10.13
2022-12-19T18:06:53.164Z,10.29
2022-12-19T18:09:22.898Z,10.21
2022-12-19T18:11:53.246Z,10.24
2022-12-19T18:14:21.341Z,10.15
2022-12-19T18:16:51.765Z,10.23
2022-12-19T18:19:25.821Z,10.12
2022-12-19T18:21:53.799Z,10.04
2022-12-19T18:24:21.663Z,10.14
2022-12-19T18:26:49.755Z,10.13
2022-12-19T18:29:17.602Z,10.01
2022-12-19T18:31:50.895Z,10.10
2022-12-19T18:34:25.689Z,10.07
2022-12-19T18:36:54.162Z,10.25
2022-12-19T18:39:25.175Z,10.20
2022-12-19T18:41:54.088Z,10.17
2022-12-19T18:44:23.215Z,10.20
2022-12-19T18:46:52.581Z,10.08
2022-12-19T18:49:22.812Z,10.32
2022-12-19T18:51:50.823Z,10.26
2022-12-19T18:54:22.044Z,10.39
2022-12-19T18:56:49.971Z,10.18
2022-12-19T18:59:17.735Z,10.04
2022-12-19T19:01:48.403Z,10.09
2022-12-19T19:04:18.453Z,10.23
2022-12-19T19:06:52.143Z,10.30
2022-12-19T19:09:22.496Z,10.18
2022-12-19T19:11:50.586Z,10.23
2022-12-19T19:14:18.547Z,10.30
2022-12-19T19:16:46.464Z,10.29
2022-12-19T19:19:19.943Z,10.28
2022-12-19T19:21:49.444Z,10.25
2022-12-19T19:24:21.796Z,10.20
2022-12-19T19:26:49.749Z,10.27
2022-12-19T19:29:19.167Z,10.26
2022-12-19T19:31:51.179Z,10.58
2022-12-19T19:34:26.808Z,10.39
2022-12-19T19:37:01.239Z,10.31
2022-12-19T19:39:33.882Z,10.16
2022-12-19T19:42:02.135Z,10.16
2022-12-19T19:44:30.222Z,10.15
2022-12-19T19:46:58.413Z,10.26
2022-12-19T19:49:26.650Z,10.28
2022-12-19T19:52:02.190Z,10.33
2022-12-19T19:54:31.172Z,10.34
2022-12-19T19:56:59.348Z,10.37
2022-12-19T19:59:31.637Z,10.39
2022-12-19T20:01:59.690Z,10.49
2022-12-19T20:04:41.115Z,10.45
2022-12-19T20:07:10.630Z,10.51
2022-12-19T20:09:38.463Z,10.61
2022-12-19T20:12:06.955Z,10.50
2022-12-19T20:14:34.977Z,10.57
2022-12-19T20:17:02.832Z,10.60
2022-12-19T20:19:30.765Z,10.51
2022-12-19T20:22:00.168Z,10.23
2022-12-19T20:24:29.347Z,10.39
2022-12-19T20:26:58.523Z,10.45
2022-12-19T20:29:27.019Z,10.31
2022-12-19T20:31:56.317Z,10.31
2022-12-19T20:34:24.480Z,10.12
2022-12-19T20:36:52.441Z,10.30
2022-12-19T20:39:22.200Z,10.25
2022-12-19T20:41:53.289Z,10.18
2022-12-19T20:44:24.343Z,10.22
2022-12-19T20:46:53.097Z,10.24
2022-12-19T20:49:21.472Z,10.24
2022-12-19T20:51:49.375Z,10.23
2022-12-19T20:54:18.248Z,10.27
2022-12-19T20:56:46.804Z,10.34
2022-12-19T20:59:17.011Z,10.26
2022-12-19T21:01:44.935Z,10.36
2022-12-19T21:04:13.042Z,10.23
2022-12-19T21:06:41.287Z,10.21
2022-12-19T21:09:10.549Z,10.26
2022-12-19T21:11:38.451Z,10.13
2022-12-19T21:14:07.858Z,10.06
2022-12-19T21:16:37.292Z,10.26
2022-12-19T21:19:05.711Z,10.32
2022-12-19T21:21:33.670Z,10.41
2022-12-19T21:24:04.248Z,10.38
2022-12-19T21:26:32.457Z,10.41
2022-12-19T21:29:00.615Z,10.44
2022-12-19T21:31:31.015Z,10.61
2022-12-19T21:34:02.373Z,10.76
2022-12-19T21:36:32.555Z,10.57
2022-12-19T21:39:02.847Z,10.61
2022-12-19T21:41:31.902Z,10.60
2022-12-19T21:44:00.830Z,10.56
2022-12-19T21:46:33.029Z,10.61
2022-12-19T21:49:03.847Z,10.60
2022-12-19T21:51:33.435Z,10.84
2022-12-19T21:54:04.562Z,10.66
2022-12-19T21:56:35.218Z,10.66
2022-12-19T21:59:06.047Z,10.67
2022-12-19T22:01:34.847Z,10.73
2022-12-19T22:04:08.174Z,10.76
2022-12-19T22:06:38.643Z,10.96
2022-12-19T22:09:08.995Z,10.88
2022-12-19T22:11:37.349Z,11.01
2022-12-19T22:14:32.862Z,10.93
2022-12-19T22:17:00.721Z,10.93
2022-12-19T22:19:29.895Z,10.90
2022-12-19T22:21:59.189Z,10.95
2022-12-19T22:24:27.020Z,11.02
2022-12-19T22:26:54.861Z,11.17
2022-12-19T22:29:23.012Z,10.93
2022-12-19T22:31:51.035Z,11.08
2022-12-19T22:34:22.100Z,11.07
2022-12-19T22:36:51.444Z,11.29
2022-12-19T22:39:22.449Z,11.34
2022-12-19T22:41:50.779Z,11.27
2022-12-19T22:44:21.873Z,11.38
2022-12-19T22:46:51.730Z,11.24
2022-12-19T22:49:19.693Z,11.25
2022-12-19T22:51:47.844Z,11.22
2022-12-19T22:54:17.460Z,11.29
2022-12-19T22:56:45.329Z,11.14
2022-12-19T22:59:14.596Z,11.45
2022-12-19T23:01:44.593Z,11.47
2022-12-19T23:04:16.334Z,11.44
2022-12-19T23:06:50.695Z,11.20
2022-12-19T23:09:20.705Z,11.31
2022-12-19T23:11:50.620Z,11.25
2022-12-19T23:14:20.881Z,11.31
2022-12-19T23:16:49.516Z,11.32
2022-12-19T23:19:18.412Z,11.24
2022-12-19T23:21:47.101Z,11.33
2022-12-19T23:24:15.230Z,11.27
2022-12-19T23:26:44.405Z,11.22
2022-12-19T23:29:14.774Z,11.49
2022-12-19T23:31:45.392Z,11.45
2022-12-19T23:34:13.953Z,11.44
2022-12-19T23:39:30.266Z,11.46
2022-12-19T23:41:59.746Z,11.57
2022-12-19T23:44:27.986Z,11.29
2022-12-19T23:47:02.716Z,11.54
2022-12-19T23:49:31.994Z,11.49
2022-12-19T23:51:59.979Z,11.33
2022-12-19T23:54:27.864Z,11.40
2022-12-19T23:56:55.647Z,11.32
2022-12-19T23:59:24.787Z,11.50
